Time;durP1;ratioP1;P1;durP2;ratioP2;P2;SDS_P1;SDS_P2;PMS_P1;PMS_P2;Temp;Humidity;BMP_temperature;BMP_pressure;BME280_temperature;BME280_humidity;BME280_pressure;Samples;Min_cycle;Max_cycle;Signal;HPM_P1;HPM_P2
2021/07/28 00:00:38;;;;;;;6.80;5.27;;;;;;;19.51;66.12;99889.44;154621;1098;103125;-76
2021/07/28 00:03:41;;;;;;;7.33;5.30;;;;;;;19.47;66.15;99890.92;154582;1093;103115;-78
2021/07/28 00:06:44;;;;;;;6.73;4.80;;;;;;;19.41;66.22;99889.11;153957;1100;103109;-76
2021/07/28 00:09:46;;;;;;;7.73;4.80;;;;;;;19.39;66.12;99883.91;154017;1101;103110;-77
2021/07/28 00:12:49;;;;;;;8.20;5.10;;;;;;;19.35;66.23;99879.17;154596;1098;103267;-76
2021/07/28 00:15:55;;;;;;;8.40;5.30;;;;;;;19.30;66.61;99871.70;154640;1098;103557;-76
2021/07/28 00:19:04;;;;;;;6.80;5.27;;;;;;;19.28;66.09;99873.80;153951;1100;103219;-77
2021/07/28 00:25:28;;;;;;;6.43;5.70;;;;;;;19.17;66.22;99867.23;153956;1100;103154;-77
2021/07/28 00:28:31;;;;;;;7.40;6.10;;;;;;;19.11;66.38;99876.23;154596;1093;103285;-76
2021/07/28 00:31:34;;;;;;;7.63;6.13;;;;;;;19.03;66.44;99869.20;154004;1100;103190;-76
2021/07/28 00:34:36;;;;;;;6.30;5.60;;;;;;;18.94;66.23;99864.28;154567;1098;103130;-76
2021/07/28 00:37:40;;;;;;;10.13;5.30;;;;;;;18.90;66.58;99868.44;154004;1093;103197;-77
2021/07/28 00:40:46;;;;;;;6.47;5.40;;;;;;;18.88;66.67;99867.83;154647;1093;103190;-76
2021/07/28 00:43:49;;;;;;;7.17;5.73;;;;;;;18.87;66.59;99871.59;153986;1093;103275;-75
2021/07/28 00:46:51;;;;;;;6.77;6.03;;;;;;;18.83;66.61;99868.48;154613;1094;103307;-76
2021/07/28 00:49:54;;;;;;;7.17;5.97;;;;;;;18.75;66.59;99866.84;153972;1100;103217;-77
2021/07/28 00:53:01;;;;;;;6.80;6.10;;;;;;;18.71;66.80;99873.72;154578;1093;103243;-76
2021/07/28 00:56:05;;;;;;;8.10;6.70;;;;;;;18.67;66.92;99871.65;154620;1098;103190;-75
2021/07/28 00:59:10;;;;;;;6.87;6.17;;;;;;;18.64;66.89;99881.02;153971;1093;103272;-79
2021/07/28 01:02:13;;;;;;;8.73;5.60;;;;;;;18.60;66.90;99879.80;154620;1093;103573;-77
2021/07/28 01:05:16;;;;;;;7.25;5.25;;;;;;;18.62;66.99;99883.94;153982;1093;103212;-76
2021/07/28 01:08:19;;;;;;;9.35;5.60;;;;;;;18.64;67.01;99879.14;154585;1098;103647;-75
2021/07/28 01:11:26;;;;;;;8.30;5.80;;;;;;;18.66;67.08;99884.34;154565;1098;103122;-75
2021/07/28 01:14:29;;;;;;;7.57;6.13;;;;;;;18.64;67.02;99886.43;154555;1098;103260;-74
2021/07/28 01:17:32;;;;;;;10.37;6.17;;;;;;;18.59;67.02;99889.79;154051;1100;103191;-76
2021/07/28 01:20:37;;;;;;;9.67;5.93;;;;;;;18.55;67.18;99890.41;153943;1093;103169;-76
2021/07/28 01:23:41;;;;;;;7.93;6.20;;;;;;;18.51;67.21;99881.08;154010;1100;103189;-76
2021/07/28 01:26:44;;;;;;;9.00;6.60;;;;;;;18.45;67.10;99882.77;154037;1100;103225;-76
2021/07/28 01:29:47;;;;;;;9.85;5.98;;;;;;;18.38;67.30;99877.40;154598;1093;103258;-77
2021/07/28 01:32:51;;;;;;;7.37;6.23;;;;;;;18.37;67.24;99885.71;154593;1098;103221;-76
2021/07/28 01:35:54;;;;;;;7.47;6.40;;;;;;;18.35;67.42;99885.92;154598;1093;103132;-76
2021/07/28 01:38:57;;;;;;;8.50;6.40;;;;;;;18.36;67.40;99884.89;154563;1093;103096;-76
2021/07/28 01:42:01;;;;;;;8.37;6.37;;;;;;;18.36;67.51;99878.64;153987;1100;103116;-75
2021/07/28 01:45:04;;;;;;;7.17;5.87;;;;;;;18.34;67.59;99872.63;154556;1098;103300;-74
2021/07/28 01:48:08;;;;;;;8.13;6.17;;;;;;;18.31;67.47;99876.59;154007;1100;103115;-75
2021/07/28 01:51:11;;;;;;;7.40;6.40;;;;;;;18.28;67.60;99873.48;153940;1093;103485;-76
2021/07/28 01:54:13;;;;;;;7.55;6.18;;;;;;;18.23;67.47;99880.35;154593;1098;103107;-76
2021/07/28 01:57:16;;;;;;;8.27;5.70;;;;;;;18.20;67.54;99877.24;153998;1100;103136;-76
2021/07/28 02:00:20;;;;;;;6.70;5.73;;;;;;;18.21;67.73;99876.22;154001;1093;103259;-77
2021/07/28 02:03:23;;;;;;;10.20;6.10;;;;;;;18.21;67.81;99876.22;153988;1100;103146;-75
2021/07/28 02:06:26;;;;;;;7.53;6.53;;;;;;;18.22;67.68;99867.05;154722;1098;103496;-75
2021/07/28 02:09:29;;;;;;;8.27;6.33;;;;;;;18.21;67.72;99865.41;153948;1094;103126;-76
2021/07/28 02:12:31;;;;;;;7.30;6.15;;;;;;;18.19;67.83;99872.90;153977;1100;103242;-75
2021/07/28 02:15:35;;;;;;;9.05;6.43;;;;;;;18.15;67.74;99869.79;154532;1098;103236;-76
2021/07/28 02:18:38;;;;;;;8.23;6.27;;;;;;;18.12;67.83;99866.68;154056;1100;103192;-75
2021/07/28 02:21:41;;;;;;;7.23;5.73;;;;;;;18.08;67.85;99865.45;153961;1094;103674;-75
2021/07/28 02:24:43;;;;;;;8.45;5.80;;;;;;;18.05;67.91;99867.53;154598;1098;103572;-75
2021/07/28 02:27:47;;;;;;;7.73;5.83;;;;;;;18.06;68.06;99868.35;154014;1093;103110;-74
2021/07/28 02:30:49;;;;;;;7.83;5.90;;;;;;;18.07;67.91;99869.17;154525;1093;103254;-75
2021/07/28 02:33:52;;;;;;;7.97;6.03;;;;;;;18.03;67.98;99860.66;154009;1093;103123;-75
2021/07/28 02:36:55;;;;;;;7.87;6.10;;;;;;;18.01;68.00;99860.05;154500;1093;103126;-74
2021/07/28 02:39:58;;;;;;;8.95;6.50;;;;;;;17.99;68.04;99860.25;154068;1093;103136;-76
2021/07/28 02:43:01;;;;;;;12.63;6.40;;;;;;;17.96;67.94;99857.17;154575;1098;103094;-75
2021/07/28 02:46:05;;;;;;;9.00;6.00;;;;;;;17.93;67.98;99866.50;154110;1093;103200;-75
2021/07/28 02:49:08;;;;;;;10.13;6.20;;;;;;;17.94;68.14;99862.78;154545;1098;103246;-74
2021/07/28 02:52:11;;;;;;;9.17;6.00;;;;;;;17.91;68.14;99865.06;154009;1093;103229;-74
2021/07/28 02:55:15;;;;;;;8.40;6.03;;;;;;;17.95;68.21;99872.52;154573;1093;103128;-74
2021/07/28 02:58:18;;;;;;;12.43;6.60;;;;;;;17.97;68.18;99875.84;153990;1100;103192;-75
2021/07/28 03:01:21;;;;;;;8.17;6.17;;;;;;;17.99;68.10;99867.53;154583;1098;103224;-74
2021/07/28 03:04:23;;;;;;;8.93;6.27;;;;;;;17.95;68.26;99867.12;153972;1100;103123;-76
2021/07/28 03:07:26;;;;;;;10.00;6.23;;;;;;;17.93;68.29;99866.50;154618;1093;103211;-74
2021/07/28 03:10:29;;;;;;;7.73;6.03;;;;;;;17.94;68.37;99868.18;154144;1100;103245;-75
2021/07/28 03:13:32;;;;;;;7.05;5.80;;;;;;;17.97;68.34;99875.02;154706;1098;103230;-77
2021/07/28 03:16:35;;;;;;;8.03;5.80;;;;;;;17.99;68.25;99867.53;153994;1100;103192;-77
2021/07/28 03:19:37;;;;;;;6.75;5.70;;;;;;;18.03;68.33;99866.06;154733;1098;103205;-78
2021/07/28 03:22:40;;;;;;;9.77;6.10;;;;;;;18.02;68.33;99873.34;154177;1093;103132;-78
2021/07/28 03:25:43;;;;;;;6.20;5.60;;;;;;;18.04;68.43;99870.44;154705;1093;103108;-78
2021/07/28 03:28:46;;;;;;;7.17;6.17;;;;;;;18.06;68.31;99873.75;154069;1093;103150;-78
2021/07/28 03:31:48;;;;;;;9.13;7.10;;;;;;;18.10;68.62;99874.17;154032;1101;103110;-77
2021/07/28 03:34:51;;;;;;;12.50;6.50;;;;;;;18.09;68.64;99867.09;154634;1098;103124;-77
2021/07/28 03:37:54;;;;;;;8.07;6.13;;;;;;;18.19;68.72;99867.50;154621;1098;103212;-77
2021/07/28 03:40:57;;;;;;;8.97;6.07;;;;;;;18.31;68.87;99873.06;154000;1093;103128;-77
2021/07/28 03:43:59;;;;;;;8.27;6.00;;;;;;;18.44;68.88;99870.31;154637;1098;103138;-78
2021/07/28 03:47:02;;;;;;;9.57;6.30;;;;;;;18.55;68.76;99866.09;154537;1098;103144;-76
2021/07/28 03:50:07;;;;;;;8.70;6.70;;;;;;;18.63;68.96;99860.47;154539;1093;104549;-78
2021/07/28 03:53:10;;;;;;;9.00;6.30;;;;;;;18.76;68.88;99864.95;154011;1093;103221;-78
2021/07/28 03:56:13;;;;;;;7.27;5.70;;;;;;;18.88;68.86;99870.53;153942;1100;103256;-78
2021/07/28 03:59:15;;;;;;;6.40;5.30;;;;;;;19.06;68.88;99864.41;154003;1101;103560;-78
2021/07/28 04:02:18;;;;;;;7.13;5.70;;;;;;;19.30;68.88;99858.17;154310;1093;103179;-78
2021/07/28 04:05:21;;;;;;;7.40;5.77;;;;;;;19.60;69.10;99862.94;154609;1098;103128;-78
2021/07/28 04:08:24;;;;;;;9.77;6.33;;;;;;;19.90;68.67;99857.69;154017;1100;103215;-78
2021/07/28 04:11:27;;;;;;;7.83;6.23;;;;;;;20.13;68.34;99856.17;154583;1093;103219;-78
2021/07/28 04:14:30;;;;;;;10.00;6.73;;;;;;;20.35;68.44;99853.84;154006;1100;103101;-79
2021/07/28 04:17:34;;;;;;;9.95;6.88;;;;;;;20.52;68.53;99848.64;154660;1098;103099;-77
2021/07/28 04:20:36;;;;;;;8.60;6.63;;;;;;;20.77;68.58;99854.78;154025;1100;103126;-78
2021/07/28 04:23:39;;;;;;;10.30;7.90;;;;;;;21.06;68.45;99849.57;154581;1093;103189;-78
2021/07/28 04:26:42;;;;;;;10.23;8.10;;;;;;;21.33;68.51;99854.58;154654;1093;103157;-78
2021/07/28 04:29:45;;;;;;;9.97;8.10;;;;;;;21.56;68.27;99848.38;154013;1100;103296;-78
2021/07/28 04:32:47;;;;;;;9.73;8.07;;;;;;;21.75;68.29;99843.67;154604;1093;103209;-77
2021/07/28 04:35:50;;;;;;;10.67;8.43;;;;;;;21.82;67.90;99843.53;153956;1093;103195;-78
2021/07/28 04:38:53;;;;;;;12.87;8.93;;;;;;;21.90;67.85;99849.45;154598;1093;103107;-77
2021/07/28 04:41:56;;;;;;;11.35;8.50;;;;;;;22.04;67.93;99851.91;154746;1098;103187;-77
2021/07/28 04:44:59;;;;;;;11.80;9.00;;;;;;;22.25;67.83;99843.16;153987;1100;103139;-77
2021/07/28 04:48:03;;;;;;;14.58;10.65;;;;;;;22.49;68.01;99840.36;153978;1100;103285;-77
2021/07/28 04:51:06;;;;;;;11.27;9.43;;;;;;;22.72;67.55;99829.38;154642;1093;103133;-77
2021/07/28 04:54:09;;;;;;;11.20;9.47;;;;;;;22.92;67.56;99823.50;153987;1100;103091;-77
2021/07/28 04:57:13;;;;;;;12.57;9.27;;;;;;;23.14;67.58;99830.97;154617;1098;103122;-77
2021/07/28 05:00:17;;;;;;;11.93;9.40;;;;;;;23.31;67.07;99820.91;154014;1100;103122;-77
2021/07/28 05:03:20;;;;;;;11.43;9.57;;;;;;;23.49;67.07;99830.70;154611;1098;103177;-77
2021/07/28 05:06:23;;;;;;;10.50;8.95;;;;;;;23.61;67.06;99829.79;154027;1100;103218;-77
2021/07/28 05:09:25;;;;;;;11.40;8.40;;;;;;;23.75;67.05;99831.11;153966;1100;103125;-77
2021/07/28 05:12:28;;;;;;;11.40;8.90;;;;;;;23.82;66.39;99825.50;153965;1100;103129;-78
2021/07/28 05:15:31;;;;;;;11.53;9.10;;;;;;;23.95;67.03;99824.32;154702;1098;103280;-77
2021/07/28 05:18:34;;;;;;;10.37;9.10;;;;;;;24.07;66.55;99827.73;154139;1093;103197;-77
2021/07/28 05:21:37;;;;;;;11.87;9.30;;;;;;;24.17;66.56;99827.86;154657;1093;103189;-77
2021/07/28 05:24:40;;;;;;;10.90;8.80;;;;;;;24.39;66.78;99827.05;153981;1093;103192;-77
2021/07/28 05:27:43;;;;;;;11.77;9.10;;;;;;;24.51;66.39;99825.03;154573;1098;103214;-77
2021/07/28 05:30:46;;;;;;;13.97;10.10;;;;;;;24.67;66.11;99824.13;154089;1100;103582;-76
2021/07/28 05:33:49;;;;;;;11.85;9.55;;;;;;;24.85;66.25;99822.12;154622;1098;103217;-77
2021/07/28 05:36:52;;;;;;;9.55;8.48;;;;;;;25.09;66.07;99828.05;154053;1094;103129;-77
2021/07/28 05:39:55;;;;;;;10.73;9.67;;;;;;;25.33;65.74;99819.53;153985;1100;103192;-77
2021/07/28 05:42:58;;;;;;;12.27;9.60;;;;;;;25.55;65.72;99819.44;154589;1098;103206;-77
2021/07/28 05:46:01;;;;;;;10.03;9.03;;;;;;;25.74;65.35;99823.38;153949;1093;103192;-78
2021/07/28 05:49:04;;;;;;;11.93;9.47;;;;;;;25.82;65.08;99814.67;154645;1093;103521;-76
2021/07/28 05:52:08;;;;;;;10.07;9.07;;;;;;;25.85;64.67;99813.34;154628;1093;103211;-76
2021/07/28 05:55:12;;;;;;;9.90;8.90;;;;;;;25.81;64.86;99821.24;153978;1100;103195;-77
2021/07/28 05:58:15;;;;;;;10.40;9.37;;;;;;;25.78;64.87;99819.03;154116;1100;103193;-76
2021/07/28 06:01:18;;;;;;;11.87;9.20;;;;;;;25.77;64.74;99813.81;154614;1093;103190;-77
2021/07/28 06:04:20;;;;;;;12.40;9.20;;;;;;;25.75;64.62;99811.38;154021;1093;103244;-77
2021/07/28 06:07:24;;;;;;;10.17;9.00;;;;;;;25.77;64.60;99811.93;154615;1093;103576;-77
2021/07/28 06:10:27;;;;;;;12.63;9.20;;;;;;;25.78;64.16;99818.21;154665;1093;103104;-76
2021/07/28 06:13:30;;;;;;;10.37;9.10;;;;;;;25.77;64.32;99809.20;154064;1100;103132;-77
2021/07/28 06:16:32;;;;;;;11.33;8.90;;;;;;;25.77;64.26;99813.81;153977;1093;103187;-76
2021/07/28 06:19:35;;;;;;;10.27;8.57;;;;;;;25.81;64.67;99815.78;153991;1100;103240;-76
2021/07/28 06:22:38;;;;;;;9.70;8.43;;;;;;;25.89;64.35;99819.10;154109;1100;103282;-77
2021/07/28 06:25:41;;;;;;;9.47;8.57;;;;;;;25.96;64.06;99814.23;154076;1100;103221;-76
2021/07/28 06:28:43;;;;;;;10.27;9.10;;;;;;;26.04;64.19;99813.75;154000;1094;103120;-77
2021/07/28 06:31:46;;;;;;;10.63;8.70;;;;;;;26.13;63.76;99803.92;153998;1093;103189;-77
2021/07/28 06:34:49;;;;;;;10.90;9.73;;;;;;;26.21;63.53;99806.16;153944;1101;103136;-76
2021/07/28 06:37:52;;;;;;;11.80;10.60;;;;;;;26.26;63.65;99819.02;153982;1100;103221;-77
2021/07/28 06:40:55;;;;;;;11.90;10.70;;;;;;;26.29;63.46;99814.91;153939;1100;103257;-77
2021/07/28 06:43:57;;;;;;;11.45;9.60;;;;;;;26.38;63.55;99816.05;153989;1094;103131;-77
2021/07/28 06:47:00;;;;;;;11.37;10.13;;;;;;;26.53;63.79;99815.28;153950;1094;103194;-76
2021/07/28 06:50:04;;;;;;;11.53;9.90;;;;;;;26.70;63.73;99812.34;153997;1100;103192;-77
2021/07/28 06:53:07;;;;;;;10.03;8.70;;;;;;;26.81;63.39;99805.77;153951;1101;103218;-77
2021/07/28 06:56:11;;;;;;;11.07;8.27;;;;;;;26.87;62.88;99809.33;153979;1100;103265;-77
2021/07/28 06:59:14;;;;;;;9.27;7.07;;;;;;;26.87;62.51;99807.44;154032;1093;103187;-76
2021/07/28 07:02:16;;;;;;;9.10;8.00;;;;;;;26.92;62.66;99804.69;154062;1100;103200;-76
2021/07/28 07:05:20;;;;;;;8.10;7.13;;;;;;;26.96;61.99;99805.78;153971;1093;103203;-77
2021/07/28 07:08:23;;;;;;;7.90;7.10;;;;;;;27.03;62.39;99789.91;154065;1093;103266;-77
2021/07/28 07:11:25;;;;;;;8.95;6.63;;;;;;;27.09;62.31;99787.18;153955;1094;103185;-77
2021/07/28 07:14:29;;;;;;;7.90;7.10;;;;;;;27.17;62.10;99784.70;153973;1093;103164;-77
2021/07/28 07:17:32;;;;;;;8.75;7.10;;;;;;;27.25;61.47;99786.09;154020;1100;103215;-77
2021/07/28 07:20:35;;;;;;;8.17;7.37;;;;;;;27.32;62.20;99781.16;153953;1100;103192;-77
2021/07/28 07:23:37;;;;;;;8.70;6.50;;;;;;;27.39;61.36;99783.63;153961;1093;103288;-76
2021/07/28 07:26:40;;;;;;;7.80;6.23;;;;;;;27.50;61.35;99787.97;153948;1100;103205;-77
2021/07/28 07:29:43;;;;;;;8.13;6.20;;;;;;;27.61;61.03;99783.30;154039;1100;103107;-77
2021/07/28 07:33:36;;;;;;;6.63;6.03;;;;;;;27.72;61.02;99779.44;154050;1100;103136;-77
2021/07/28 07:36:10;;;;;;;8.37;6.53;;;;;;;27.82;60.86;99773.10;153944;1100;103154;-77
2021/07/28 07:39:13;;;;;;;6.80;6.10;;;;;;;27.91;60.55;99776.95;153979;1094;103126;-75
2021/07/28 07:42:16;;;;;;;7.90;6.20;;;;;;;27.97;60.39;99777.75;154074;1093;103194;-75
2021/07/28 07:45:19;;;;;;;6.83;5.60;;;;;;;28.05;60.08;99776.34;154090;1093;103188;-75
2021/07/28 07:48:22;;;;;;;6.23;5.43;;;;;;;28.09;59.82;99778.23;154109;1100;103116;-75
2021/07/28 07:51:27;;;;;;;7.47;5.40;;;;;;;28.13;59.65;99778.49;154066;1093;103180;-77
2021/07/28 07:54:29;;;;;;;7.55;5.40;;;;;;;28.09;59.51;99771.94;154036;1100;103157;-77
2021/07/28 07:57:32;;;;;;;5.60;5.00;;;;;;;28.12;59.50;99763.97;154033;1100;103225;-77
2021/07/28 08:00:35;;;;;;;6.90;4.90;;;;;;;28.12;58.54;99761.22;153978;1100;103259;-77
2021/07/28 08:03:39;;;;;;;6.55;4.65;;;;;;;28.10;58.64;99762.59;154007;1093;103219;-77
2021/07/28 08:06:41;;;;;;;6.35;5.00;;;;;;;28.05;58.08;99759.89;154012;1100;103215;-76
2021/07/28 08:09:44;;;;;;;6.47;4.80;;;;;;;27.99;57.42;99756.34;154059;1093;103112;-75
2021/07/28 08:12:47;;;;;;;7.40;5.30;;;;;;;27.95;58.15;99755.27;153971;1100;103237;-76
2021/07/28 08:15:50;;;;;;;6.63;5.10;;;;;;;27.94;57.39;99759.91;153979;1093;103263;-76
2021/07/28 08:18:53;;;;;;;6.40;5.20;;;;;;;27.90;56.88;99758.02;154059;1100;103125;-76
2021/07/28 08:21:56;;;;;;;6.23;5.63;;;;;;;27.89;57.06;99756.37;153961;1093;103125;-77
2021/07/28 08:24:58;;;;;;;5.97;5.33;;;;;;;27.89;57.05;99748.14;153981;1100;103192;-75
2021/07/28 08:28:01;;;;;;;5.60;5.10;;;;;;;27.94;56.77;99748.13;154051;1093;103354;-76
2021/07/28 08:31:04;;;;;;;6.00;5.40;;;;;;;28.00;56.96;99752.48;153983;1093;103192;-76
2021/07/28 08:34:07;;;;;;;7.10;5.40;;;;;;;28.05;56.14;99737.95;153950;1093;103209;-76
2021/07/28 08:37:09;;;;;;;5.40;4.90;;;;;;;28.08;56.35;99732.72;153995;1100;103544;-76
2021/07/28 08:40:15;;;;;;;6.57;5.17;;;;;;;28.13;55.69;99735.42;154066;1100;103126;-76
2021/07/28 08:43:20;;;;;;;6.70;5.50;;;;;;;28.17;55.99;99733.75;153960;1100;103045;-76
2021/07/28 08:46:26;;;;;;;7.03;5.53;;;;;;;28.18;55.73;99729.10;153998;1093;103134;-76
2021/07/28 08:49:29;;;;;;;5.27;4.77;;;;;;;28.19;55.24;99722.50;154076;1100;103496;-76
2021/07/28 08:52:34;;;;;;;5.30;4.80;;;;;;;28.20;54.77;99724.96;154162;1094;103153;-76
2021/07/28 08:55:37;;;;;;;5.60;4.90;;;;;;;28.21;54.28;99723.03;154012;1100;103192;-76
2021/07/28 08:58:41;;;;;;;5.85;5.00;;;;;;;28.23;54.14;99722.75;153952;1100;103154;-76
2021/07/28 09:01:44;;;;;;;5.30;4.60;;;;;;;28.24;54.07;99724.41;154059;1100;103224;-76
2021/07/28 09:04:47;;;;;;;5.23;4.57;;;;;;;28.27;54.55;99721.08;153957;1093;103229;-76
2021/07/28 09:07:54;;;;;;;5.70;4.87;;;;;;;28.27;53.72;99715.59;153993;1093;103129;-76
2021/07/28 09:10:59;;;;;;;5.93;4.87;;;;;;;28.31;53.25;99724.89;153965;1093;103193;-76
2021/07/28 09:14:17;;;;;;;6.03;4.57;;;;;;;28.33;53.59;99717.20;154017;1093;103190;-77
2021/07/28 09:17:24;;;;;;;5.97;5.03;;;;;;;28.40;53.94;99713.03;154071;1093;103145;-76
2021/07/28 09:20:27;;;;;;;7.33;4.80;;;;;;;28.51;53.33;99711.08;154048;1093;103564;-76
2021/07/28 09:23:38;;;;;;;5.80;4.58;;;;;;;28.63;53.49;99713.45;154026;1093;103154;-76
2021/07/28 09:26:44;;;;;;;5.10;4.60;;;;;;;28.73;53.07;99709.80;154022;1100;103188;-77
2021/07/28 09:29:48;;;;;;;5.67;5.07;;;;;;;28.83;53.05;99715.23;153978;1100;103189;-76
2021/07/28 09:33:05;;;;;;;5.53;4.80;;;;;;;28.91;52.75;99722.03;154025;1100;103200;-76
2021/07/28 09:36:17;;;;;;;6.47;5.60;;;;;;;28.97;52.49;99720.88;154004;1093;103143;-76
2021/07/28 09:39:24;;;;;;;5.60;4.60;;;;;;;29.00;52.31;99709.29;154008;1093;103123;-76
2021/07/28 09:42:28;;;;;;;6.53;3.77;;;;;;;29.03;52.23;99716.96;154107;1093;103163;-76
2021/07/28 09:45:31;;;;;;;4.40;4.00;;;;;;;29.08;51.55;99716.92;153974;1100;103209;-76
2021/07/28 09:48:37;;;;;;;3.70;3.33;;;;;;;29.12;51.22;99715.27;153973;1093;103231;-76
2021/07/28 09:51:43;;;;;;;4.37;3.60;;;;;;;29.15;50.76;99717.41;153964;1100;103270;-76
2021/07/28 09:54:47;;;;;;;4.20;3.73;;;;;;;29.17;50.41;99714.38;154011;1100;103496;-76
2021/07/28 09:57:55;;;;;;;4.27;3.80;;;;;;;29.20;50.24;99715.72;154085;1100;103191;-76
2021/07/28 10:00:58;;;;;;;5.33;3.90;;;;;;;29.20;50.68;99708.31;154017;1100;103097;-76
2021/07/28 10:04:02;;;;;;;4.80;3.70;;;;;;;29.24;50.71;99701.13;154011;1093;103231;-76
2021/07/28 10:07:05;;;;;;;3.93;3.53;;;;;;;29.23;49.87;99701.41;154270;1093;103282;-76
2021/07/28 10:10:12;;;;;;;4.73;3.80;;;;;;;29.22;49.22;99711.59;154040;1093;103187;-76
2021/07/28 10:13:17;;;;;;;4.40;4.00;;;;;;;29.24;48.80;99709.38;153994;1094;103193;-77
2021/07/28 10:16:20;;;;;;;6.50;4.00;;;;;;;29.24;49.26;99703.06;153954;1100;103123;-76
2021/07/28 10:19:24;;;;;;;6.65;3.75;;;;;;;29.28;49.42;99704.92;153982;1094;103194;-76
2021/07/28 10:22:27;;;;;;;4.27;3.87;;;;;;;29.35;48.78;99688.92;153933;1094;103197;-76
2021/07/28 10:25:31;;;;;;;5.20;4.05;;;;;;;29.42;49.00;99688.55;154071;1100;103192;-76
2021/07/28 10:28:34;;;;;;;3.97;3.63;;;;;;;29.50;48.73;99687.09;154069;1093;103668;-76
2021/07/28 10:31:47;;;;;;;5.13;3.87;;;;;;;29.58;48.75;99685.63;153970;1100;103147;-76
2021/07/28 10:34:50;;;;;;;4.00;3.60;;;;;;;29.66;48.19;99684.97;154013;1100;103200;-75
2021/07/28 10:37:55;;;;;;;4.65;3.75;;;;;;;29.74;48.57;99684.37;153972;1100;103275;-76
2021/07/28 10:41:01;;;;;;;5.00;3.83;;;;;;;29.80;48.34;99676.88;154015;1100;103157;-76
2021/07/28 10:44:11;;;;;;;4.53;3.90;;;;;;;29.88;48.05;99673.45;154000;1093;103597;-76
2021/07/28 10:47:16;;;;;;;4.03;3.60;;;;;;;29.96;47.37;99672.78;154029;1093;103211;-76
2021/07/28 10:50:44;;;;;;;4.15;3.75;;;;;;;30.03;47.45;99675.18;154059;1100;103241;-76
2021/07/28 10:53:49;;;;;;;4.13;3.73;;;;;;;30.11;46.87;99672.56;153981;1100;103296;-76
2021/07/28 10:57:08;;;;;;;4.63;3.67;;;;;;;30.15;47.45;99672.79;154024;1093;103136;-76
2021/07/28 11:00:12;;;;;;;3.90;3.50;;;;;;;30.13;46.77;99670.33;153956;1093;103190;-77
2021/07/28 11:03:17;;;;;;;5.80;3.97;;;;;;;30.07;46.35;99670.72;154084;1101;103119;-76
2021/07/28 11:06:24;;;;;;;4.30;3.90;;;;;;;30.14;46.78;99671.98;154057;1101;103123;-76
2021/07/28 11:09:28;;;;;;;4.55;3.60;;;;;;;30.12;46.20;99665.96;154009;1093;103136;-76
2021/07/28 11:12:31;;;;;;;4.83;3.77;;;;;;;30.18;46.29;99663.95;154698;1098;103189;-76
2021/07/28 11:15:34;;;;;;;5.27;3.80;;;;;;;30.23;46.16;99657.54;154227;1098;103144;-76
2021/07/28 11:18:38;;;;;;;4.40;4.00;;;;;;;30.32;46.16;99655.78;154147;1098;103125;-77
2021/07/28 11:21:41;;;;;;;4.40;4.00;;;;;;;30.37;46.06;99650.20;154575;1098;103231;-76
2021/07/28 11:24:54;;;;;;;4.40;3.90;;;;;;;30.46;45.82;99656.64;154611;1093;103128;-76
2021/07/28 11:28:07;;;;;;;5.13;3.87;;;;;;;30.55;46.10;99648.53;154206;1093;103241;-76
2021/07/28 11:31:10;;;;;;;4.93;3.70;;;;;;;30.59;45.59;99646.80;154063;1100;103563;-76
2021/07/28 11:34:15;;;;;;;5.73;4.17;;;;;;;30.59;45.34;99632.23;154599;1098;103104;-76
2021/07/28 11:37:21;;;;;;;4.33;3.40;;;;;;;30.48;45.34;99637.88;154562;1098;103241;-76
2021/07/28 11:40:41;;;;;;;4.30;3.90;;;;;;;30.40;45.50;99635.02;153960;1093;103304;-76
2021/07/28 11:43:44;;;;;;;4.30;3.90;;;;;;;30.42;45.84;99630.84;154144;1093;103195;-76
2021/07/28 11:46:54;;;;;;;4.23;3.80;;;;;;;30.32;44.76;99620.00;153993;1100;103206;-76
2021/07/28 11:50:04;;;;;;;4.00;3.60;;;;;;;30.37;45.23;99621.84;153956;1100;103238;-76
2021/07/28 11:53:07;;;;;;;3.87;3.57;;;;;;;30.36;45.41;99626.54;154038;1100;103269;-75
2021/07/28 11:56:12;;;;;;;4.20;3.73;;;;;;;30.32;44.71;99623.56;153975;1100;103199;-76
2021/07/28 11:59:18;;;;;;;3.97;3.53;;;;;;;30.33;44.87;99618.87;153997;1100;103187;-76
2021/07/28 12:02:21;;;;;;;4.40;4.00;;;;;;;30.42;43.78;99619.02;154061;1093;103151;-76
2021/07/28 12:05:24;;;;;;;4.23;3.83;;;;;;;30.53;44.28;99612.22;153998;1100;103497;-76
2021/07/28 12:08:34;;;;;;;5.67;4.10;;;;;;;30.63;43.88;99611.22;153929;1093;103298;-76
2021/07/28 12:11:48;;;;;;;4.40;3.83;;;;;;;30.69;44.09;99610.01;154008;1093;103144;-76
2021/07/28 12:15:08;;;;;;;4.70;4.00;;;;;;;30.67;43.79;99604.80;154006;1093;103215;-76
2021/07/28 12:18:10;;;;;;;4.30;3.73;;;;;;;30.73;44.08;99611.03;153996;1101;103159;-76
2021/07/28 12:21:14;;;;;;;4.43;3.93;;;;;;;30.78;43.59;99605.44;153965;1100;103131;-76
2021/07/28 12:24:17;;;;;;;4.53;4.13;;;;;;;30.83;43.48;99599.84;153985;1094;103272;-76
2021/07/28 12:28:03;;;;;;;4.80;4.10;;;;;;;30.88;43.43;99602.48;153944;1100;103223;-76
2021/07/28 12:31:05;;;;;;;4.73;4.20;;;;;;;30.96;43.59;99605.69;154012;1100;103238;-76
2021/07/28 12:34:21;;;;;;;5.43;3.93;;;;;;;30.95;42.64;99606.80;153961;1093;103154;-76
2021/07/28 12:37:24;;;;;;;4.70;4.30;;;;;;;30.86;42.83;99599.22;153928;1100;103136;-76
2021/07/28 12:40:27;;;;;;;4.63;4.23;;;;;;;30.88;43.22;99596.16;153988;1093;103276;-76
2021/07/28 12:43:32;;;;;;;4.50;4.00;;;;;;;30.92;42.86;99589.76;153966;1100;103271;-76
2021/07/28 12:46:35;;;;;;;4.17;3.77;;;;;;;30.97;42.86;99577.84;154031;1100;103122;-76
2021/07/28 12:49:39;;;;;;;4.17;3.77;;;;;;;31.01;42.13;99575.30;153981;1100;103187;-76
2021/07/28 12:52:43;;;;;;;5.20;4.30;;;;;;;31.01;41.95;99578.05;153928;1100;103115;-77
2021/07/28 12:55:46;;;;;;;6.00;4.10;;;;;;;31.05;42.45;99584.58;154034;1100;103216;-76
2021/07/28 12:58:49;;;;;;;4.67;4.20;;;;;;;31.06;42.75;99575.17;153999;1100;103245;-76
2021/07/28 13:01:51;;;;;;;4.87;4.00;;;;;;;30.97;42.13;99582.52;153997;1094;103192;-77
2021/07/28 13:04:56;;;;;;;4.65;4.10;;;;;;;30.82;41.89;99578.11;153966;1101;103120;-77
2021/07/28 13:08:03;;;;;;;6.53;4.13;;;;;;;30.76;41.88;99571.88;153982;1093;103116;-77
2021/07/28 13:11:06;;;;;;;4.30;4.00;;;;;;;30.76;42.58;99574.63;154012;1093;103266;-76
2021/07/28 13:14:09;;;;;;;4.30;3.90;;;;;;;30.77;42.30;99573.50;153977;1100;103227;-76
2021/07/28 13:17:12;;;;;;;4.20;3.80;;;;;;;30.78;41.79;99572.39;154017;1100;103132;-77
2021/07/28 13:20:15;;;;;;;7.15;4.10;;;;;;;30.78;42.04;99569.63;153961;1100;103489;-77
2021/07/28 13:23:18;;;;;;;4.70;3.80;;;;;;;30.80;42.10;99572.09;153926;1100;103209;-76
2021/07/28 13:26:21;;;;;;;4.40;4.00;;;;;;;30.86;42.46;99571.67;153953;1101;103480;-77
2021/07/28 13:29:23;;;;;;;6.10;4.25;;;;;;;30.90;42.34;99578.23;153969;1100;103368;-76
2021/07/28 13:32:26;;;;;;;4.47;3.83;;;;;;;30.95;42.08;99568.23;154039;1093;103182;-76
2021/07/28 13:35:29;;;;;;;4.20;3.80;;;;;;;30.97;42.09;99571.49;153968;1100;103113;-76
2021/07/28 13:38:32;;;;;;;4.15;3.40;;;;;;;30.96;42.11;99567.93;154051;1100;103154;-77
2021/07/28 13:41:35;;;;;;;4.30;3.87;;;;;;;31.02;41.97;99563.14;153945;1100;103215;-77
2021/07/28 13:44:38;;;;;;;4.80;4.30;;;;;;;31.08;42.55;99559.15;153974;1094;103266;-76
2021/07/28 13:47:43;;;;;;;5.17;4.30;;;;;;;31.11;42.18;99547.52;153960;1100;103193;-77
2021/07/28 13:50:46;;;;;;;4.40;3.95;;;;;;;31.18;42.17;99547.09;154048;1100;103221;-76
2021/07/28 13:53:49;;;;;;;5.55;4.05;;;;;;;31.22;41.85;99535.17;153985;1100;103480;-76
2021/07/28 13:57:10;;;;;;;4.80;3.87;;;;;;;31.25;42.04;99529.02;153952;1100;103141;-77
2021/07/28 14:00:14;;;;;;;4.90;4.10;;;;;;;31.25;41.21;99523.50;154105;1100;103112;-76
2021/07/28 14:03:17;;;;;;;5.23;4.00;;;;;;;31.25;41.18;99523.50;153982;1101;103229;-77
2021/07/28 14:06:20;;;;;;;4.43;4.03;;;;;;;31.26;41.22;99525.16;153937;1100;103125;-76